createdAt,value
2022-09-26T00:01:43.690Z,2.80
2022-09-26T00:04:24.612Z,2.77
2022-09-26T00:06:56.283Z,3.17
2022-09-26T00:09:26.550Z,2.80
2022-09-26T00:11:54.610Z,2.90
2022-09-26T00:14:26.623Z,2.70
2022-09-26T00:16:55.811Z,2.83
2022-09-26T00:19:24.675Z,2.83
2022-09-26T00:21:53.661Z,2.47
2022-09-26T00:24:22.661Z,2.40
2022-09-26T00:26:50.694Z,2.73
2022-09-26T00:29:20.465Z,2.70
2022-09-26T00:31:50.477Z,3.20
2022-09-26T00:34:20.790Z,2.53
2022-09-26T00:36:50.534Z,2.90
2022-09-26T00:39:19.092Z,2.87
2022-09-26T00:41:47.591Z,3.10
2022-09-26T00:44:36.601Z,3.00
2022-09-26T00:47:06.888Z,2.70
2022-09-26T00:49:38.686Z,2.97
2022-09-26T00:52:11.970Z,3.13
2022-09-26T00:54:46.239Z,2.90
2022-09-26T00:57:23.743Z,2.93
2022-09-26T00:59:58.030Z,2.90
2022-09-26T01:02:28.990Z,3.07
2022-09-26T01:05:00.335Z,3.10
2022-09-26T01:07:29.856Z,3.20
2022-09-26T01:10:00.059Z,3.00
2022-09-26T01:12:29.877Z,3.60
2022-09-26T01:14:59.885Z,2.80
2022-09-26T01:17:28.975Z,3.33
2022-09-26T01:19:57.273Z,3.47
2022-09-26T01:23:03.970Z,2.93
2022-09-26T01:26:09.011Z,3.43
2022-09-26T01:29:03.879Z,4.07
2022-09-26T01:32:28.074Z,3.03
2022-09-26T01:35:01.133Z,3.37
2022-09-26T01:37:38.396Z,3.47
2022-09-26T01:40:16.417Z,3.33
2022-09-26T01:43:21.062Z,3.70
2022-09-26T01:45:52.490Z,3.30
2022-09-26T01:48:26.221Z,3.77
2022-09-26T01:50:58.174Z,3.63
2022-09-26T01:53:51.159Z,3.40
2022-09-26T01:56:26.382Z,4.17
2022-09-26T01:59:11.390Z,3.67
2022-09-26T02:01:44.271Z,3.90
2022-09-26T02:04:19.334Z,4.27
2022-09-26T02:06:56.369Z,5.10
2022-09-26T02:09:31.653Z,4.40
2022-09-26T02:12:02.504Z,4.13
2022-09-26T02:14:39.479Z,3.80
2022-09-26T02:17:35.518Z,3.83
2022-09-26T02:20:11.514Z,4.53
2022-09-26T02:22:40.594Z,3.57
2022-09-26T02:25:09.888Z,3.73
2022-09-26T02:27:40.130Z,3.43
2022-09-26T02:30:13.507Z,3.60
2022-09-26T02:32:42.623Z,3.80
2022-09-26T02:35:30.144Z,2.93
2022-09-26T02:37:59.662Z,2.43
2022-09-26T02:40:41.002Z,2.83
2022-09-26T02:43:55.788Z,2.47
2022-09-26T02:46:51.757Z,3.17
2022-09-26T02:49:53.971Z,3.10
2022-09-26T02:52:28.829Z,2.93
2022-09-26T02:55:16.858Z,3.03
2022-09-26T02:58:07.375Z,3.53
2022-09-26T03:01:11.905Z,3.70
2022-09-26T03:04:00.955Z,3.60
2022-09-26T03:06:44.931Z,3.63
2022-09-26T03:09:16.929Z,3.97
2022-09-26T03:11:45.997Z,3.83
2022-09-26T03:14:15.019Z,3.47
2022-09-26T03:16:46.041Z,3.57
2022-09-26T03:19:28.064Z,3.70
2022-09-26T03:21:58.274Z,3.30
2022-09-26T03:24:29.082Z,3.53
2022-09-26T03:27:01.028Z,3.30
2022-09-26T03:29:30.130Z,2.90
2022-09-26T03:32:01.238Z,3.07
2022-09-26T03:34:30.173Z,2.80
2022-09-26T03:36:59.199Z,2.40
2022-09-26T03:39:28.218Z,1.87
2022-09-26T03:42:07.458Z,1.93
2022-09-26T03:44:36.246Z,1.60
2022-09-26T03:47:14.340Z,2.13
2022-09-26T03:49:46.682Z,1.60
2022-09-26T03:52:15.416Z,1.70
2022-09-26T03:54:46.388Z,1.73
2022-09-26T03:57:17.410Z,2.07
2022-09-26T03:59:51.441Z,1.63
2022-09-26T04:02:21.524Z,1.67
2022-09-26T04:04:59.718Z,1.70
2022-09-26T04:07:28.707Z,1.43
2022-09-26T04:09:59.490Z,1.83
2022-09-26T04:12:28.566Z,1.60
2022-09-26T04:14:56.908Z,1.70
2022-09-26T04:17:25.639Z,1.37
2022-09-26T04:19:55.850Z,1.73
2022-09-26T04:22:26.544Z,1.67
2022-09-26T04:24:55.016Z,2.30
2022-09-26T04:27:29.888Z,1.53
2022-09-26T04:29:59.524Z,1.40
2022-09-26T04:32:40.729Z,1.30
2022-09-26T04:35:32.803Z,1.47
2022-09-26T04:38:01.805Z,1.43
2022-09-26T04:40:32.422Z,1.43
2022-09-26T04:43:05.915Z,1.20
2022-09-26T04:45:34.902Z,1.90
2022-09-26T04:48:05.131Z,1.80
2022-09-26T04:50:44.926Z,1.60
2022-09-26T04:53:14.156Z,1.50
2022-09-26T04:56:02.250Z,1.73
2022-09-26T04:58:33.952Z,2.73
2022-09-26T05:01:06.389Z,1.80
2022-09-26T05:03:47.005Z,1.67
2022-09-26T05:06:17.279Z,2.37
2022-09-26T05:08:50.277Z,1.90
2022-09-26T05:11:25.403Z,1.70
2022-09-26T05:13:54.353Z,1.40
2022-09-26T05:16:29.248Z,1.53
2022-09-26T05:19:02.064Z,1.70
2022-09-26T05:21:30.525Z,2.00
2022-09-26T05:24:19.181Z,1.60
2022-09-26T05:26:51.211Z,1.43
2022-09-26T05:29:22.775Z,1.50
2022-09-26T05:32:00.335Z,2.00
2022-09-26T05:34:33.346Z,1.83
2022-09-26T05:37:03.580Z,2.23
2022-09-26T05:39:52.233Z,2.13
2022-09-26T05:42:21.399Z,2.00
2022-09-26T05:44:50.480Z,2.27
2022-09-26T05:47:19.411Z,1.90
2022-09-26T05:49:49.745Z,1.83
2022-09-26T05:52:24.567Z,1.97
2022-09-26T05:54:54.749Z,2.27
2022-09-26T05:57:50.505Z,2.37
2022-09-26T06:00:21.569Z,1.63
2022-09-26T06:02:59.552Z,1.90
2022-09-26T06:05:44.793Z,1.67
2022-09-26T06:08:18.599Z,1.90
2022-09-26T06:10:51.661Z,2.20
2022-09-26T06:13:21.921Z,1.60
2022-09-26T06:15:52.850Z,1.60
2022-09-26T06:18:22.080Z,1.63
2022-09-26T06:20:51.980Z,1.63
2022-09-26T06:23:21.621Z,1.57
2022-09-26T06:25:51.770Z,1.80
2022-09-26T06:28:20.190Z,1.30
2022-09-26T06:30:49.176Z,1.97
2022-09-26T06:33:35.834Z,1.70
2022-09-26T06:36:29.248Z,1.67
2022-09-26T06:38:57.955Z,1.30
2022-09-26T06:41:30.947Z,1.60
2022-09-26T06:44:00.197Z,1.63
2022-09-26T06:46:47.047Z,1.50
2022-09-26T06:49:20.280Z,1.50
2022-09-26T06:52:12.047Z,1.73
2022-09-26T06:54:41.065Z,2.20
2022-09-26T06:57:15.080Z,1.63
2022-09-26T06:59:45.225Z,1.30
2022-09-26T07:02:38.393Z,1.50
2022-09-26T07:05:23.421Z,1.70
2022-09-26T07:07:54.218Z,1.63
2022-09-26T07:10:31.243Z,1.90
2022-09-26T07:13:07.633Z,1.37
2022-09-26T07:15:38.290Z,1.63
2022-09-26T07:18:23.689Z,1.40
2022-09-26T07:21:18.362Z,2.20
2022-09-26T07:23:52.406Z,1.50
2022-09-26T07:26:22.383Z,1.77
2022-09-26T07:28:54.550Z,2.00
2022-09-26T07:31:27.734Z,1.40
2022-09-26T07:34:18.829Z,1.40
2022-09-26T07:36:47.819Z,1.73
2022-09-26T07:39:17.449Z,1.57
2022-09-26T07:41:47.556Z,1.67
2022-09-26T07:45:08.720Z,1.40
2022-09-26T07:47:24.573Z,1.53
2022-09-26T07:50:16.687Z,1.37
2022-09-26T07:53:13.885Z,1.77
2022-09-26T07:56:06.869Z,1.47
2022-09-26T07:59:00.589Z,1.87
2022-09-26T08:01:45.795Z,1.67
2022-09-26T08:04:35.801Z,1.67
2022-09-26T08:07:04.768Z,1.53
2022-09-26T08:09:38.696Z,1.53
2022-09-26T08:12:25.830Z,1.60
2022-09-26T08:15:06.878Z,1.80
2022-09-26T08:17:45.120Z,1.60
2022-09-26T08:20:14.101Z,1.30
2022-09-26T08:22:42.197Z,1.97
2022-09-26T08:25:13.317Z,1.60
2022-09-26T08:27:53.994Z,1.80
2022-09-26T08:30:26.018Z,2.67
2022-09-26T08:32:56.288Z,1.77
2022-09-26T08:35:26.550Z,1.73
2022-09-26T08:38:14.257Z,1.93
2022-09-26T08:40:49.185Z,1.47
2022-09-26T08:44:04.124Z,1.53
2022-09-26T08:47:05.395Z,1.60
2022-09-26T08:50:33.718Z,1.43
2022-09-26T08:53:11.287Z,1.73
2022-09-26T08:55:48.522Z,1.17
2022-09-26T08:58:25.325Z,1.50
2022-09-26T09:01:03.795Z,1.70
2022-09-26T09:03:53.343Z,1.57
2022-09-26T09:06:22.601Z,1.40
2022-09-26T09:08:53.328Z,1.43
2022-09-26T09:11:51.260Z,1.30
2022-09-26T09:14:31.671Z,1.47
2022-09-26T09:17:33.914Z,2.17
2022-09-26T09:20:45.838Z,1.70
2022-09-26T09:23:50.807Z,1.47
2022-09-26T09:29:21.519Z,1.33
2022-09-26T09:32:27.792Z,1.90
2022-09-26T09:35:18.543Z,2.13
2022-09-26T09:38:08.560Z,1.43
2022-09-26T09:40:47.652Z,1.70
2022-09-26T09:43:27.614Z,1.50
2022-09-26T09:46:04.686Z,1.70
2022-09-26T09:48:34.006Z,1.40
2022-09-26T09:51:19.902Z,1.90
2022-09-26T09:54:18.061Z,1.90
2022-09-26T09:57:10.734Z,1.77
2022-09-26T09:59:50.125Z,1.83
2022-09-26T10:02:22.831Z,1.63
2022-09-26T10:05:06.830Z,1.77
2022-09-26T10:07:35.891Z,2.77
2022-09-26T10:10:29.116Z,1.87
2022-09-26T10:13:31.957Z,1.63
2022-09-26T10:16:19.961Z,1.60
2022-09-26T10:19:07.970Z,1.57
2022-09-26T10:21:42.204Z,1.70
2022-09-26T10:24:28.028Z,1.57
2022-09-26T10:27:38.348Z,1.70
2022-09-26T10:30:26.325Z,1.50
2022-09-26T10:33:06.329Z,1.40
2022-09-26T10:36:32.225Z,1.50
2022-09-26T10:39:24.205Z,1.50
2022-09-26T10:42:00.184Z,1.70
2022-09-26T10:44:34.475Z,1.80
2022-09-26T10:47:29.258Z,1.70
2022-09-26T10:50:17.276Z,2.13
2022-09-26T10:53:09.323Z,1.97
2022-09-26T10:55:53.358Z,1.67
2022-09-26T10:58:24.392Z,2.03
2022-09-26T11:00:55.420Z,1.60
2022-09-26T11:03:36.684Z,1.63
2022-09-26T11:06:35.457Z,1.60
2022-09-26T11:09:24.699Z,1.40
2022-09-26T11:12:30.473Z,1.73
2022-09-26T11:15:11.502Z,2.10
2022-09-26T11:17:45.776Z,1.83
2022-09-26T11:20:18.807Z,2.00
2022-09-26T11:23:43.568Z,1.90
2022-09-26T11:26:31.129Z,1.53
2022-09-26T11:29:15.286Z,2.17
2022-09-26T11:32:30.673Z,2.00
2022-09-26T11:35:03.677Z,1.80
2022-09-26T11:37:51.699Z,2.10
2022-09-26T11:40:35.706Z,1.80
2022-09-26T11:43:14.996Z,1.77
2022-09-26T11:45:50.134Z,1.73
2022-09-26T11:48:55.937Z,1.50
2022-09-26T11:52:02.232Z,1.60
2022-09-26T11:54:37.357Z,1.73
2022-09-26T11:57:25.040Z,1.67
2022-09-26T12:00:25.045Z,1.60
2022-09-26T12:03:02.140Z,1.63
2022-09-26T12:06:00.904Z,2.17
2022-09-26T12:08:50.454Z,2.00
2022-09-26T12:11:45.908Z,1.80
2022-09-26T12:14:40.365Z,1.80
2022-09-26T12:17:44.464Z,1.70
2022-09-26T12:20:31.211Z,2.07
2022-09-26T12:23:08.747Z,1.73
2022-09-26T12:26:03.212Z,2.67
2022-09-26T12:28:52.180Z,1.40
2022-09-26T12:31:51.355Z,1.47
2022-09-26T12:34:38.780Z,1.60
2022-09-26T12:37:45.518Z,1.50
2022-09-26T12:40:55.358Z,1.70
2022-09-26T12:43:43.314Z,1.37
2022-09-26T12:46:59.378Z,1.50
2022-09-26T12:50:05.918Z,1.80
2022-09-26T12:52:55.481Z,1.50
2022-09-26T12:55:36.422Z,1.23
2022-09-26T12:58:29.701Z,1.20
2022-09-26T13:01:29.774Z,1.40
2022-09-26T13:04:12.563Z,1.20
2022-09-26T13:07:18.885Z,1.40
2022-09-26T13:10:07.092Z,1.20
2022-09-26T13:13:12.630Z,1.27
2022-09-26T13:16:20.939Z,1.10
2022-09-26T13:18:53.870Z,0.90
2022-09-26T13:22:04.922Z,1.27
2022-09-26T13:24:48.699Z,1.27
2022-09-26T13:27:37.946Z,1.30
2022-09-26T13:30:28.794Z,1.10
2022-09-26T13:33:10.036Z,1.20
2022-09-26T13:35:45.638Z,1.43
2022-09-26T13:38:41.699Z,1.83
2022-09-26T13:41:27.778Z,1.10
2022-09-26T13:44:06.050Z,1.17
2022-09-26T13:46:55.813Z,1.33
2022-09-26T13:49:31.887Z,1.37
2022-09-26T13:52:20.588Z,1.30
2022-09-26T13:55:04.041Z,1.13
2022-09-26T13:57:39.969Z,1.27
2022-09-26T14:00:31.915Z,1.57
2022-09-26T14:03:11.324Z,1.20
2022-09-26T14:05:50.297Z,1.30
2022-09-26T14:08:52.024Z,1.50
2022-09-26T14:11:30.409Z,1.43
2022-09-26T14:14:19.461Z,1.40
2022-09-26T14:17:02.241Z,1.37
2022-09-26T14:19:39.502Z,1.37
2022-09-26T14:22:32.182Z,1.10
2022-09-26T14:25:03.541Z,1.20
2022-09-26T14:27:45.530Z,1.30
2022-09-26T14:30:15.390Z,1.40
2022-09-26T14:32:49.617Z,1.30
2022-09-26T14:35:26.940Z,1.10
2022-09-26T14:38:03.306Z,1.60
2022-09-26T14:40:40.429Z,1.53
2022-09-26T14:43:18.761Z,1.57
2022-09-26T14:45:51.809Z,1.60
2022-09-26T14:48:38.893Z,1.57
2022-09-26T14:51:14.537Z,1.67
2022-09-26T14:53:49.785Z,1.50
2022-09-26T14:56:45.836Z,1.40
2022-09-26T14:59:18.196Z,1.50
2022-09-26T15:01:48.672Z,1.30
2022-09-26T15:04:21.651Z,1.33
2022-09-26T15:06:56.677Z,1.50
2022-09-26T15:09:27.932Z,1.40
2022-09-26T15:12:04.034Z,1.47
2022-09-26T15:14:44.050Z,0.97
2022-09-26T15:17:24.147Z,1.23
2022-09-26T15:19:56.821Z,1.30
2022-09-26T15:22:27.805Z,1.10
2022-09-26T15:25:17.794Z,0.90
2022-09-26T15:27:49.831Z,1.27
2022-09-26T15:30:21.875Z,0.87
2022-09-26T15:32:53.457Z,0.60
2022-09-26T15:35:22.937Z,0.90
2022-09-26T15:37:54.136Z,0.80
2022-09-26T15:40:27.005Z,0.77
2022-09-26T15:43:17.043Z,0.60
2022-09-26T15:46:12.982Z,0.80
2022-09-26T15:48:50.164Z,0.80
2022-09-26T15:51:41.102Z,0.70
2022-09-26T15:54:22.645Z,0.60
2022-09-26T15:56:54.173Z,1.40
2022-09-26T15:59:46.155Z,1.53
2022-09-26T16:02:30.343Z,1.07
2022-09-26T16:05:00.472Z,1.53
2022-09-26T16:07:34.268Z,1.10
2022-09-26T16:10:07.249Z,0.90
2022-09-26T16:12:42.559Z,0.80
2022-09-26T16:15:29.437Z,0.90
2022-09-26T16:18:00.360Z,0.83
2022-09-26T16:20:31.633Z,1.10
2022-09-26T16:23:05.231Z,1.90
2022-09-26T16:25:48.674Z,1.37
2022-09-26T16:28:19.460Z,1.40
2022-09-26T16:30:59.557Z,1.20
2022-09-26T16:33:31.496Z,1.43
2022-09-26T16:36:07.523Z,1.40
2022-09-26T16:39:10.625Z,1.10
2022-09-26T16:42:40.949Z,1.20
2022-09-26T16:45:16.061Z,1.50
2022-09-26T16:47:51.772Z,1.30
2022-09-26T16:50:35.820Z,1.20
2022-09-26T16:53:09.133Z,1.60
2022-09-26T16:55:37.858Z,1.30
2022-09-26T16:58:08.395Z,1.50
2022-09-26T17:00:56.894Z,1.60
2022-09-26T17:03:33.775Z,1.63
2022-09-26T17:06:04.185Z,1.83
2022-09-26T17:08:35.039Z,2.00
2022-09-26T17:11:08.283Z,2.40
2022-09-26T17:13:40.953Z,2.30
2022-09-26T17:16:13.061Z,2.20
2022-09-26T17:18:46.035Z,2.87
2022-09-26T17:21:19.053Z,2.30
2022-09-26T17:23:49.308Z,2.83
2022-09-26T17:29:38.027Z,2.20
2022-09-26T17:32:09.649Z,2.60
2022-09-26T17:34:37.733Z,2.93
2022-09-26T17:37:04.602Z,2.80
2022-09-26T17:39:31.987Z,3.10
2022-09-26T17:41:59.219Z,3.47
2022-09-26T17:44:26.396Z,4.27
2022-09-26T17:46:58.693Z,3.40
2022-09-26T17:49:37.326Z,3.30
2022-09-26T17:52:06.493Z,3.43
2022-09-26T17:54:42.644Z,3.13
2022-09-26T17:57:16.410Z,3.27
2022-09-26T17:59:43.209Z,3.80
2022-09-26T18:02:24.382Z,6.37
2022-09-26T18:04:54.935Z,4.80
2022-09-26T18:07:24.571Z,4.03
2022-09-26T18:09:52.412Z,4.13
2022-09-26T18:12:25.534Z,4.00
2022-09-26T18:14:52.446Z,4.13
2022-09-26T18:17:19.544Z,3.93
2022-09-26T18:19:46.997Z,3.60
2022-09-26T18:22:24.474Z,4.47
2022-09-26T18:24:51.783Z,3.77
2022-09-26T18:27:18.788Z,3.80
2022-09-26T18:29:48.877Z,4.50
2022-09-26T18:32:29.074Z,4.23
2022-09-26T18:34:58.550Z,5.17
2022-09-26T18:37:25.656Z,4.00
2022-09-26T18:39:55.702Z,4.50
2022-09-26T18:42:24.903Z,3.87
2022-09-26T18:47:43.014Z,3.90
2022-09-26T18:50:19.679Z,3.83
2022-09-26T18:52:46.978Z,4.27
2022-09-26T18:55:41.048Z,3.07
2022-09-26T18:58:25.430Z,3.57
2022-09-26T19:01:13.334Z,3.47
2022-09-26T19:03:42.417Z,3.30
2022-09-26T19:06:12.627Z,3.40
2022-09-26T19:08:42.962Z,2.73
2022-09-26T19:11:18.012Z,3.20
2022-09-26T19:13:56.498Z,2.87
2022-09-26T19:16:24.581Z,2.93
2022-09-26T19:18:52.387Z,3.27
2022-09-26T19:21:35.532Z,3.47
2022-09-26T19:24:20.731Z,3.20
2022-09-26T19:26:53.859Z,2.97
2022-09-26T19:29:27.867Z,3.30
2022-09-26T19:31:55.048Z,3.67
2022-09-26T19:34:22.358Z,3.00
2022-09-26T19:36:52.489Z,3.43
2022-09-26T19:39:20.988Z,3.10
2022-09-26T19:41:47.815Z,3.37
2022-09-26T19:50:18.018Z,3.10
2022-09-26T19:52:44.940Z,2.47
2022-09-26T19:55:17.334Z,2.80
2022-09-26T19:57:44.170Z,2.43
2022-09-26T20:00:12.333Z,2.17
2022-09-26T20:02:39.310Z,2.77
2022-09-26T20:05:23.953Z,1.80
2022-09-26T20:07:51.574Z,1.73
2022-09-26T20:10:21.729Z,1.83
2022-09-26T20:12:48.732Z,1.40
2022-09-26T20:15:16.733Z,1.10
2022-09-26T20:17:44.840Z,1.30
2022-09-26T20:20:22.884Z,1.60
2022-09-26T20:22:51.510Z,1.30
2022-09-26T20:25:29.902Z,1.20
2022-09-26T20:27:57.730Z,1.43
2022-09-26T20:30:43.632Z,1.40
2022-09-26T20:33:13.671Z,1.50
2022-09-26T20:35:45.005Z,2.37
2022-09-26T20:38:38.603Z,1.60
2022-09-26T20:41:13.315Z,1.40
2022-09-26T20:43:41.817Z,1.33
2022-09-26T20:46:09.504Z,1.50
2022-09-26T20:48:37.635Z,2.03
2022-09-26T20:51:05.826Z,1.60
2022-09-26T20:53:32.756Z,1.30
2022-09-26T20:55:59.981Z,1.30
2022-09-26T20:58:27.120Z,1.30
2022-09-26T21:00:53.954Z,1.17
2022-09-26T21:03:25.232Z,1.50
2022-09-26T21:05:52.317Z,1.40
2022-09-26T21:08:27.452Z,1.37
2022-09-26T21:10:56.232Z,1.30
2022-09-26T21:13:23.775Z,1.10
2022-09-26T21:15:51.703Z,0.87
2022-09-26T21:18:24.257Z,1.10
2022-09-26T21:20:52.076Z,0.93
2022-09-26T21:23:22.515Z,1.00
2022-09-26T21:25:49.410Z,0.70
2022-09-26T21:28:22.498Z,1.10
2022-09-26T21:30:49.785Z,0.90
2022-09-26T21:33:16.555Z,1.23
2022-09-26T21:35:43.316Z,0.90
2022-09-26T21:38:10.373Z,0.80
2022-09-26T21:40:39.349Z,1.03
2022-09-26T21:43:11.691Z,0.50
2022-09-26T21:45:39.104Z,1.00
2022-09-26T21:48:05.967Z,0.90
2022-09-26T21:50:32.746Z,0.90
2022-09-26T21:53:03.250Z,0.80
2022-09-26T21:55:33.850Z,0.80
2022-09-26T21:58:03.698Z,1.00
2022-09-26T22:00:30.422Z,0.93
2022-09-26T22:03:01.116Z,0.90
2022-09-26T22:05:27.878Z,1.00
2022-09-26T22:07:55.890Z,0.53
2022-09-26T22:10:22.818Z,1.00
2022-09-26T22:12:56.524Z,0.80
2022-09-26T22:15:23.475Z,0.93
2022-09-26T22:17:50.158Z,0.90
2022-09-26T22:20:17.123Z,1.10
2022-09-26T22:22:43.991Z,0.90
2022-09-26T22:25:10.639Z,0.80
2022-09-26T22:27:37.950Z,0.60
2022-09-26T22:30:05.981Z,0.60
2022-09-26T22:32:32.678Z,1.00
2022-09-26T22:34:59.454Z,1.00
2022-09-26T22:37:26.197Z,1.00
2022-09-26T22:39:53.294Z,0.70
2022-09-26T22:42:20.039Z,0.70
2022-09-26T22:44:46.827Z,0.90
2022-09-26T22:47:13.462Z,0.80
2022-09-26T22:49:40.288Z,0.90
2022-09-26T22:52:06.995Z,0.63
2022-09-26T22:54:33.766Z,1.87
2022-09-26T22:57:00.460Z,0.87
2022-09-26T22:59:27.161Z,1.00
2022-09-26T23:01:58.413Z,0.77
2022-09-26T23:04:45.117Z,0.70
2022-09-26T23:07:11.846Z,0.80
2022-09-26T23:09:38.658Z,0.70
2022-09-26T23:12:05.501Z,0.70
2022-09-26T23:14:32.392Z,0.87
2022-09-26T23:16:59.123Z,1.10
2022-09-26T23:19:26.010Z,0.97
2022-09-26T23:21:52.725Z,0.80
2022-09-26T23:24:19.566Z,1.00
2022-09-26T23:26:46.455Z,1.10
2022-09-26T23:29:13.242Z,1.20
2022-09-26T23:31:40.041Z,1.20
2022-09-26T23:34:06.781Z,1.73
2022-09-26T23:36:33.566Z,2.13
2022-09-26T23:39:00.474Z,1.83
2022-09-26T23:41:27.331Z,0.80
2022-09-26T23:43:54.054Z,1.10
2022-09-26T23:46:20.862Z,1.20
2022-09-26T23:48:47.662Z,1.03
2022-09-26T23:51:14.401Z,1.00
2022-09-26T23:53:41.137Z,0.80
2022-09-26T23:56:12.260Z,0.70
2022-09-26T23:58:39.111Z,1.23
